createdAt,value
2022-07-27T00:04:54.023Z,1.43
2022-07-27T00:09:59.318Z,0.93
2022-07-27T00:15:05.746Z,1.03
2022-07-27T00:20:11.723Z,1.00
2022-07-27T00:25:17.052Z,1.40
2022-07-27T00:30:22.461Z,1.37
2022-07-27T00:35:27.896Z,1.30
2022-07-27T00:40:33.432Z,1.27
2022-07-27T00:45:39.456Z,1.70
2022-07-27T00:50:47.282Z,1.67
2022-07-27T00:55:52.721Z,2.10
2022-07-27T01:00:58.819Z,2.33
2022-07-27T01:06:04.636Z,1.50
2022-07-27T01:11:10.315Z,2.17
2022-07-27T01:16:15.830Z,1.63
2022-07-27T01:21:21.689Z,1.90
2022-07-27T01:26:27.539Z,2.30
2022-07-27T01:31:33.303Z,1.80
2022-07-27T01:36:38.682Z,2.10
2022-07-27T01:41:44.627Z,1.90
2022-07-27T01:46:50.146Z,2.30
2022-07-27T01:51:57.327Z,1.90
2022-07-27T01:57:03.164Z,1.80
2022-07-27T02:02:08.630Z,2.07
2022-07-27T02:07:14.095Z,1.50
2022-07-27T02:12:37.869Z,1.60
2022-07-27T02:17:45.365Z,1.70
2022-07-27T02:22:51.754Z,1.77
2022-07-27T02:27:57.220Z,1.70
2022-07-27T02:33:09.096Z,1.90
2022-07-27T02:38:14.589Z,1.60
2022-07-27T02:43:19.934Z,2.60
2022-07-27T02:48:25.332Z,2.30
2022-07-27T02:53:32.256Z,2.57
2022-07-27T02:58:37.820Z,2.50
2022-07-27T03:03:43.178Z,2.00
2022-07-27T03:08:48.735Z,1.70
2022-07-27T03:13:54.183Z,1.70
2022-07-27T03:18:59.782Z,1.73
2022-07-27T03:24:05.304Z,2.00
2022-07-27T03:29:11.014Z,2.20
2022-07-27T03:34:18.032Z,1.90
2022-07-27T03:39:23.557Z,2.03
2022-07-27T03:44:28.982Z,2.43
2022-07-27T03:49:34.656Z,2.00
2022-07-27T03:54:40.948Z,2.20
2022-07-27T03:59:46.382Z,2.60
2022-07-27T04:04:52.261Z,2.63
2022-07-27T04:09:58.130Z,2.50
2022-07-27T04:15:05.054Z,2.73
2022-07-27T04:20:11.367Z,2.20
2022-07-27T04:25:17.134Z,2.90
2022-07-27T04:30:24.325Z,3.80
2022-07-27T04:35:29.831Z,4.27
2022-07-27T04:40:36.063Z,2.53
2022-07-27T04:45:41.453Z,2.27
2022-07-27T04:50:48.521Z,2.43
2022-07-27T04:55:54.254Z,2.73
2022-07-27T05:00:59.691Z,2.00
2022-07-27T05:06:05.087Z,2.30
2022-07-27T05:11:10.468Z,1.87
2022-07-27T05:16:15.935Z,2.00
2022-07-27T05:21:21.364Z,2.03
2022-07-27T05:26:26.790Z,1.30
2022-07-27T05:31:32.200Z,1.93
2022-07-27T05:36:37.619Z,1.50
2022-07-27T05:41:43.025Z,1.93
2022-07-27T05:46:48.356Z,1.80
2022-07-27T05:51:53.744Z,1.77
2022-07-27T05:56:59.165Z,1.73
2022-07-27T06:02:04.704Z,2.07
2022-07-27T06:07:27.540Z,2.20
2022-07-27T06:12:34.354Z,1.43
2022-07-27T06:17:40.552Z,1.90
2022-07-27T06:22:51.160Z,2.60
2022-07-27T06:27:56.480Z,1.73
2022-07-27T06:33:03.739Z,1.60
2022-07-27T06:38:10.057Z,1.43
2022-07-27T06:43:15.371Z,1.37
2022-07-27T06:48:21.582Z,1.50
2022-07-27T06:53:28.008Z,1.70
2022-07-27T06:58:37.813Z,1.13
2022-07-27T07:03:43.551Z,1.13
2022-07-27T07:08:49.038Z,1.73
2022-07-27T07:13:54.349Z,0.90
2022-07-27T07:18:59.734Z,1.73
2022-07-27T07:24:05.359Z,1.50
2022-07-27T07:29:10.842Z,1.40
2022-07-27T07:34:16.655Z,0.97
2022-07-27T07:39:22.145Z,0.97
2022-07-27T07:44:27.774Z,1.40
2022-07-27T07:49:37.865Z,1.30
2022-07-27T07:54:40.338Z,2.25
2022-07-27T07:59:47.026Z,1.45
2022-07-27T08:04:52.946Z,1.80
2022-07-27T08:09:58.387Z,1.10
2022-07-27T08:15:04.327Z,1.37
2022-07-27T08:20:10.359Z,1.33
2022-07-27T08:25:17.536Z,1.50
2022-07-27T08:30:23.086Z,1.30
2022-07-27T08:35:30.230Z,1.10
2022-07-27T08:40:45.967Z,1.90
2022-07-27T08:45:45.086Z,1.30
2022-07-27T08:50:51.956Z,1.70
2022-07-27T08:55:58.076Z,0.90
2022-07-27T09:01:04.330Z,1.27
2022-07-27T09:06:09.728Z,1.10
2022-07-27T09:11:16.527Z,1.50
2022-07-27T09:16:24.894Z,1.07
2022-07-27T09:21:30.520Z,1.12
2022-07-27T09:26:36.406Z,0.80
2022-07-27T09:31:50.643Z,1.22
2022-07-27T09:36:58.760Z,1.02
2022-07-27T09:42:04.124Z,0.70
2022-07-27T09:47:25.776Z,1.00
2022-07-27T09:52:32.780Z,1.12
2022-07-27T09:57:55.815Z,1.05
2022-07-27T10:03:02.990Z,0.93
2022-07-27T10:08:09.137Z,0.55
2022-07-27T10:13:14.549Z,0.98
2022-07-27T10:18:45.109Z,0.75
2022-07-27T10:24:04.332Z,0.90
2022-07-27T10:29:21.092Z,0.90
2022-07-27T10:34:44.077Z,0.82
2022-07-27T10:40:13.100Z,0.57
2022-07-27T10:45:20.222Z,0.90
2022-07-27T10:50:30.163Z,0.80
2022-07-27T10:55:38.501Z,1.02
2022-07-27T11:00:55.871Z,0.70
2022-07-27T11:06:55.490Z,0.70
2022-07-27T11:11:42.703Z,0.80
2022-07-27T11:16:55.490Z,0.70
2022-07-27T11:21:57.880Z,0.65
2022-07-27T11:27:17.163Z,0.78
2022-07-27T11:32:14.507Z,1.00
2022-07-27T11:37:23.887Z,0.60
2022-07-27T11:42:40.608Z,0.60
2022-07-27T11:47:48.218Z,0.70
2022-07-27T11:53:02.027Z,0.93
2022-07-27T11:58:07.996Z,0.70
2022-07-27T12:03:45.755Z,0.60
2022-07-27T12:08:32.530Z,0.60
2022-07-27T12:13:37.889Z,0.70
2022-07-27T12:18:44.899Z,0.65
2022-07-27T12:23:55.655Z,0.90
2022-07-27T12:29:09.606Z,1.12
2022-07-27T12:34:16.394Z,0.60
2022-07-27T12:39:32.397Z,0.80
2022-07-27T12:44:58.434Z,0.90
2022-07-27T12:50:13.018Z,0.70
2022-07-27T12:55:20.327Z,0.65
2022-07-27T13:00:33.229Z,0.62
2022-07-27T13:05:36.947Z,1.00
2022-07-27T13:10:42.718Z,0.65
2022-07-27T13:15:48.082Z,0.98
2022-07-27T13:20:53.796Z,0.80
2022-07-27T13:25:59.689Z,0.70
2022-07-27T13:31:05.313Z,1.00
2022-07-27T13:36:10.737Z,0.62
2022-07-27T13:41:16.092Z,0.62
2022-07-27T13:46:22.005Z,0.70
2022-07-27T13:51:27.488Z,1.07
2022-07-27T13:56:33.532Z,0.90
2022-07-27T14:01:40.465Z,0.80
2022-07-27T14:06:47.945Z,0.93
2022-07-27T14:11:53.373Z,0.90
2022-07-27T14:16:58.743Z,0.80
2022-07-27T14:22:04.698Z,0.70
2022-07-27T14:27:10.119Z,0.90
2022-07-27T14:32:15.506Z,0.57
2022-07-27T14:37:22.869Z,0.65
2022-07-27T14:42:28.954Z,0.68
2022-07-27T14:47:34.415Z,0.60
2022-07-27T14:52:39.735Z,1.47
2022-07-27T14:57:46.740Z,0.65
2022-07-27T15:02:53.273Z,0.60
2022-07-27T15:07:58.722Z,0.72
2022-07-27T15:13:05.671Z,0.70
2022-07-27T15:18:11.178Z,0.82
2022-07-27T15:23:17.590Z,0.80
2022-07-27T15:28:23.040Z,0.80
2022-07-27T15:33:28.376Z,0.80
2022-07-27T15:38:33.810Z,1.15
2022-07-27T15:43:42.745Z,1.20
2022-07-27T15:48:49.870Z,1.15
2022-07-27T15:53:56.925Z,1.00
2022-07-27T15:59:02.394Z,0.90
2022-07-27T16:04:08.105Z,1.00
2022-07-27T16:09:14.487Z,1.27
2022-07-27T16:14:20.594Z,1.00
2022-07-27T16:19:25.944Z,1.30
2022-07-27T16:24:33.995Z,1.52
2022-07-27T16:29:38.156Z,2.52
2022-07-27T16:34:43.580Z,1.20
2022-07-27T16:39:48.954Z,1.45
2022-07-27T16:44:54.269Z,1.85
2022-07-27T16:49:59.698Z,2.52
2022-07-27T16:55:05.530Z,1.70
2022-07-27T17:00:12.329Z,1.50
2022-07-27T17:05:17.757Z,2.00
2022-07-27T17:10:26.630Z,2.40
2022-07-27T17:15:30.322Z,2.90
2022-07-27T17:20:37.978Z,2.80
2022-07-27T17:25:43.321Z,2.50
2022-07-27T17:30:48.809Z,3.72
2022-07-27T17:35:54.200Z,3.43
2022-07-27T17:40:59.567Z,4.53
2022-07-27T17:46:04.965Z,3.80
2022-07-27T17:51:10.795Z,3.90
2022-07-27T17:56:16.243Z,7.57
2022-07-27T18:01:21.659Z,11.63
2022-07-27T18:06:28.698Z,6.93
2022-07-27T18:11:34.117Z,9.83
2022-07-27T18:16:41.023Z,8.93
2022-07-27T18:21:46.613Z,5.40
2022-07-27T18:26:53.247Z,3.87
2022-07-27T18:31:59.035Z,3.47
2022-07-27T18:37:04.554Z,4.00
2022-07-27T18:42:10.084Z,6.83
2022-07-27T18:47:15.436Z,3.77
2022-07-27T18:52:20.969Z,3.50
2022-07-27T18:57:26.420Z,3.17
2022-07-27T19:02:38.765Z,5.90
2022-07-27T19:07:40.925Z,5.93
2022-07-27T19:12:46.363Z,5.20
2022-07-27T19:17:52.762Z,5.67
2022-07-27T19:22:58.142Z,6.00
2022-07-27T19:28:04.551Z,5.80
2022-07-27T19:33:09.887Z,5.37
2022-07-27T19:38:15.263Z,3.90
2022-07-27T19:43:21.009Z,4.43
2022-07-27T19:48:28.129Z,3.97
2022-07-27T19:53:35.137Z,3.23
2022-07-27T19:58:40.645Z,4.40
2022-07-27T20:03:50.023Z,3.73
2022-07-27T20:08:54.642Z,4.20
2022-07-27T20:14:02.587Z,4.10
2022-07-27T20:19:07.968Z,4.20
2022-07-27T20:24:14.280Z,4.60
2022-07-27T20:29:19.616Z,6.00
2022-07-27T20:34:25.993Z,6.57
2022-07-27T20:39:31.419Z,7.40
2022-07-27T20:44:36.791Z,8.30
2022-07-27T20:49:42.100Z,8.37
2022-07-27T20:54:47.500Z,7.77
2022-07-27T20:59:52.873Z,10.13
2022-07-27T21:04:59.589Z,10.30
2022-07-27T21:10:06.318Z,10.30
2022-07-27T21:15:13.645Z,10.43
2022-07-27T21:20:19.612Z,9.17
2022-07-27T21:25:24.976Z,7.63
2022-07-27T21:30:33.360Z,8.17
2022-07-27T21:35:38.684Z,7.40
2022-07-27T21:40:44.130Z,7.73
2022-07-27T21:45:49.843Z,7.20
2022-07-27T21:50:55.582Z,7.17
2022-07-27T21:56:00.979Z,7.73
2022-07-27T22:01:09.208Z,7.87
2022-07-27T22:06:16.242Z,7.33
2022-07-27T22:11:21.639Z,7.73
2022-07-27T22:16:27.095Z,7.13
2022-07-27T22:21:32.739Z,7.50
2022-07-27T22:26:38.082Z,6.90
2022-07-27T22:31:43.712Z,6.50
2022-07-27T22:36:49.108Z,6.00
2022-07-27T22:41:54.546Z,5.97
2022-07-27T22:46:59.899Z,6.50
2022-07-27T22:52:08.521Z,7.03
2022-07-27T22:57:13.827Z,6.83
2022-07-27T23:02:19.767Z,6.73
2022-07-27T23:07:25.094Z,7.30
2022-07-27T23:12:30.527Z,6.13
2022-07-27T23:17:36.154Z,6.63
2022-07-27T23:22:42.509Z,6.87
2022-07-27T23:27:49.650Z,6.57
2022-07-27T23:32:56.778Z,6.83
2022-07-27T23:38:02.128Z,7.13
2022-07-27T23:43:07.553Z,6.93
2022-07-27T23:48:12.949Z,7.07
2022-07-27T23:53:18.400Z,5.83
2022-07-27T23:58:24.200Z,6.27
